sensor_id;sensor_type;location;lat;lon;timestamp;temperature;humidity
11140;DHT22;5624;49.388;11.350;2022-12-07T00:01:46;1.30;99.90
11140;DHT22;5624;49.388;11.350;2022-12-07T00:04:15;1.30;99.90
11140;DHT22;5624;49.388;11.350;2022-12-07T00:06:43;1.30;99.90
11140;DHT22;5624;49.388;11.350;2022-12-07T00:09:15;1.30;99.90
11140;DHT22;5624;49.388;11.350;2022-12-07T00:11:41;1.30;99.90
11140;DHT22;5624;49.388;11.350;2022-12-07T00:14:10;1.30;99.90
11140;DHT22;5624;49.388;11.350;2022-12-07T00:16:36;1.40;99.90
11140;DHT22;5624;49.388;11.350;2022-12-07T00:19:02;1.40;99.90
11140;DHT22;5624;49.388;11.350;2022-12-07T00:21:31;1.40;99.90
11140;DHT22;5624;49.388;11.350;2022-12-07T00:23:57;1.40;99.90
11140;DHT22;5624;49.388;11.350;2022-12-07T00:28:53;1.40;99.90
11140;DHT22;5624;49.388;11.350;2022-12-07T00:31:21;1.50;99.90
11140;DHT22;5624;49.388;11.350;2022-12-07T00:33:47;1.50;99.90
11140;DHT22;5624;49.388;11.350;2022-12-07T00:36:15;1.50;99.90
11140;DHT22;5624;49.388;11.350;2022-12-07T00:38:41;1.40;99.90
11140;DHT22;5624;49.388;11.350;2022-12-07T00:43:37;1.50;99.90
11140;DHT22;5624;49.388;11.350;2022-12-07T00:46:03;1.50;99.90
11140;DHT22;5624;49.388;11.350;2022-12-07T00:48:29;1.40;99.90
11140;DHT22;5624;49.388;11.350;2022-12-07T00:50:55;1.50;99.90
11140;DHT22;5624;49.388;11.350;2022-12-07T00:53:22;1.40;99.90
11140;DHT22;5624;49.388;11.350;2022-12-07T00:55:47;1.50;99.90
11140;DHT22;5624;49.388;11.350;2022-12-07T00:58:14;1.40;99.90
11140;DHT22;5624;49.388;11.350;2022-12-07T01:00:41;1.40;99.90
11140;DHT22;5624;49.388;11.350;2022-12-07T01:03:09;1.40;99.90
11140;DHT22;5624;49.388;11.350;2022-12-07T01:05:36;1.40;99.90
11140;DHT22;5624;49.388;11.350;2022-12-07T01:08:02;1.40;99.90
11140;DHT22;5624;49.388;11.350;2022-12-07T01:10:28;1.40;99.90
11140;DHT22;5624;49.388;11.350;2022-12-07T01:12:56;1.40;99.90
11140;DHT22;5624;49.388;11.350;2022-12-07T01:15:21;1.50;99.90
11140;DHT22;5624;49.388;11.350;2022-12-07T01:17:47;1.50;99.90
11140;DHT22;5624;49.388;11.350;2022-12-07T01:20:13;1.50;99.90
11140;DHT22;5624;49.388;11.350;2022-12-07T01:22:40;1.50;99.90
11140;DHT22;5624;49.388;11.350;2022-12-07T01:25:07;1.50;99.90
11140;DHT22;5624;49.388;11.350;2022-12-07T01:27:34;1.50;99.90
11140;DHT22;5624;49.388;11.350;2022-12-07T01:30:00;1.50;99.90
11140;DHT22;5624;49.388;11.350;2022-12-07T01:32:26;1.50;99.90
11140;DHT22;5624;49.388;11.350;2022-12-07T01:34:52;1.40;99.90
11140;DHT22;5624;49.388;11.350;2022-12-07T01:37:17;1.40;99.90
11140;DHT22;5624;49.388;11.350;2022-12-07T01:39:43;1.50;99.90
11140;DHT22;5624;49.388;11.350;2022-12-07T01:42:10;1.40;99.90
11140;DHT22;5624;49.388;11.350;2022-12-07T01:47:39;1.50;99.90
11140;DHT22;5624;49.388;11.350;2022-12-07T01:50:06;1.50;99.90
11140;DHT22;5624;49.388;11.350;2022-12-07T01:52:33;1.50;99.90
11140;DHT22;5624;49.388;11.350;2022-12-07T01:55:04;1.50;99.90
11140;DHT22;5624;49.388;11.350;2022-12-07T01:57:34;1.50;99.90
11140;DHT22;5624;49.388;11.350;2022-12-07T02:00:01;1.50;99.90
11140;DHT22;5624;49.388;11.350;2022-12-07T02:02:30;1.40;99.90
11140;DHT22;5624;49.388;11.350;2022-12-07T02:05:01;1.50;99.90
11140;DHT22;5624;49.388;11.350;2022-12-07T02:07:28;1.50;99.90
11140;DHT22;5624;49.388;11.350;2022-12-07T02:09:54;1.40;99.90
11140;DHT22;5624;49.388;11.350;2022-12-07T02:12:20;1.40;99.90
11140;DHT22;5624;49.388;11.350;2022-12-07T02:14:47;1.50;99.90
11140;DHT22;5624;49.388;11.350;2022-12-07T02:17:34;1.50;99.90
11140;DHT22;5624;49.388;11.350;2022-12-07T02:20:21;1.50;99.90
11140;DHT22;5624;49.388;11.350;2022-12-07T02:22:54;1.50;99.90
11140;DHT22;5624;49.388;11.350;2022-12-07T02:28:51;1.50;99.90
11140;DHT22;5624;49.388;11.350;2022-12-07T02:31:20;1.40;99.90
11140;DHT22;5624;49.388;11.350;2022-12-07T02:33:54;1.40;99.90
11140;DHT22;5624;49.388;11.350;2022-12-07T02:36:40;1.50;99.90
11140;DHT22;5624;49.388;11.350;2022-12-07T02:39:50;1.40;99.90
11140;DHT22;5624;49.388;11.350;2022-12-07T02:42:04;1.40;99.90
11140;DHT22;5624;49.388;11.350;2022-12-07T02:44:32;1.40;99.90
11140;DHT22;5624;49.388;11.350;2022-12-07T02:47:02;1.50;99.90
11140;DHT22;5624;49.388;11.350;2022-12-07T02:49:29;1.50;99.90
11140;DHT22;5624;49.388;11.350;2022-12-07T02:51:55;1.40;99.90
11140;DHT22;5624;49.388;11.350;2022-12-07T02:54:21;1.40;99.90
11140;DHT22;5624;49.388;11.350;2022-12-07T03:08:06;1.30;99.90
11140;DHT22;5624;49.388;11.350;2022-12-07T03:19:08;1.40;99.90
11140;DHT22;5624;49.388;11.350;2022-12-07T03:21:40;1.30;99.90
11140;DHT22;5624;49.388;11.350;2022-12-07T03:24:15;1.30;99.90
11140;DHT22;5624;49.388;11.350;2022-12-07T03:26:45;1.30;99.90
11140;DHT22;5624;49.388;11.350;2022-12-07T03:29:19;1.30;99.90
11140;DHT22;5624;49.388;11.350;2022-12-07T03:31:52;1.20;99.90
11140;DHT22;5624;49.388;11.350;2022-12-07T03:34:25;1.30;99.90
11140;DHT22;5624;49.388;11.350;2022-12-07T03:37:18;1.20;99.90
11140;DHT22;5624;49.388;11.350;2022-12-07T03:40:04;1.20;99.90
11140;DHT22;5624;49.388;11.350;2022-12-07T03:42:32;1.20;99.90
11140;DHT22;5624;49.388;11.350;2022-12-07T03:45:00;1.30;99.90
11140;DHT22;5624;49.388;11.350;2022-12-07T03:47:50;1.20;99.90
11140;DHT22;5624;49.388;11.350;2022-12-07T03:53:14;0.90;99.90
11140;DHT22;5624;49.388;11.350;2022-12-07T03:55:43;0.80;99.90
11140;DHT22;5624;49.388;11.350;2022-12-07T03:58:15;0.80;99.90
11140;DHT22;5624;49.388;11.350;2022-12-07T04:00:43;0.70;99.90
11140;DHT22;5624;49.388;11.350;2022-12-07T04:03:10;0.60;99.90
11140;DHT22;5624;49.388;11.350;2022-12-07T04:05:35;0.60;99.90
11140;DHT22;5624;49.388;11.350;2022-12-07T04:08:01;0.50;99.90
11140;DHT22;5624;49.388;11.350;2022-12-07T04:10:27;0.50;99.90
11140;DHT22;5624;49.388;11.350;2022-12-07T04:12:53;0.50;99.90
11140;DHT22;5624;49.388;11.350;2022-12-07T04:15:18;0.50;99.90
11140;DHT22;5624;49.388;11.350;2022-12-07T04:17:44;0.50;99.90
11140;DHT22;5624;49.388;11.350;2022-12-07T04:20:10;0.50;99.90
11140;DHT22;5624;49.388;11.350;2022-12-07T04:22:36;0.40;99.90
11140;DHT22;5624;49.388;11.350;2022-12-07T04:25:02;0.40;99.90
11140;DHT22;5624;49.388;11.350;2022-12-07T04:27:27;0.40;99.90
11140;DHT22;5624;49.388;11.350;2022-12-07T04:29:53;0.40;99.90
11140;DHT22;5624;49.388;11.350;2022-12-07T04:32:19;0.30;99.90
11140;DHT22;5624;49.388;11.350;2022-12-07T04:34:44;0.20;99.90
11140;DHT22;5624;49.388;11.350;2022-12-07T04:37:10;0.20;99.90
11140;DHT22;5624;49.388;11.350;2022-12-07T04:39:35;0.10;99.90
11140;DHT22;5624;49.388;11.350;2022-12-07T04:42:01;0.00;99.90
11140;DHT22;5624;49.388;11.350;2022-12-07T04:44:27;0.00;99.90
11140;DHT22;5624;49.388;11.350;2022-12-07T04:46:54;0.00;99.90
11140;DHT22;5624;49.388;11.350;2022-12-07T04:49:21;0.00;99.90
11140;DHT22;5624;49.388;11.350;2022-12-07T04:51:47;-0.10;99.90
11140;DHT22;5624;49.388;11.350;2022-12-07T04:54:14;-0.20;99.90
11140;DHT22;5624;49.388;11.350;2022-12-07T04:56:40;-0.20;99.90
11140;DHT22;5624;49.388;11.350;2022-12-07T04:59:06;-0.10;99.90
11140;DHT22;5624;49.388;11.350;2022-12-07T05:01:32;-0.10;99.90
11140;DHT22;5624;49.388;11.350;2022-12-07T05:03:58;0.00;99.90
11140;DHT22;5624;49.388;11.350;2022-12-07T05:06:24;0.00;99.90
11140;DHT22;5624;49.388;11.350;2022-12-07T05:08:49;0.00;99.90
11140;DHT22;5624;49.388;11.350;2022-12-07T05:11:16;0.00;99.90
11140;DHT22;5624;49.388;11.350;2022-12-07T05:14:00;0.20;99.90
11140;DHT22;5624;49.388;11.350;2022-12-07T05:16:26;0.10;99.90
11140;DHT22;5624;49.388;11.350;2022-12-07T05:18:52;0.20;99.90
11140;DHT22;5624;49.388;11.350;2022-12-07T05:21:17;0.20;99.90
11140;DHT22;5624;49.388;11.350;2022-12-07T05:23:43;0.30;99.90
11140;DHT22;5624;49.388;11.350;2022-12-07T05:26:09;0.30;99.90
11140;DHT22;5624;49.388;11.350;2022-12-07T05:28:35;0.40;99.90
11140;DHT22;5624;49.388;11.350;2022-12-07T05:31:01;0.40;99.90
11140;DHT22;5624;49.388;11.350;2022-12-07T05:33:27;0.40;99.90
11140;DHT22;5624;49.388;11.350;2022-12-07T05:35:52;0.40;99.90
11140;DHT22;5624;49.388;11.350;2022-12-07T05:38:18;0.30;99.90
11140;DHT22;5624;49.388;11.350;2022-12-07T05:40:43;0.40;99.90
11140;DHT22;5624;49.388;11.350;2022-12-07T05:43:09;0.40;99.90
11140;DHT22;5624;49.388;11.350;2022-12-07T05:45:35;0.40;99.90
11140;DHT22;5624;49.388;11.350;2022-12-07T05:48:01;0.40;99.90
11140;DHT22;5624;49.388;11.350;2022-12-07T05:50:26;0.40;99.90
11140;DHT22;5624;49.388;11.350;2022-12-07T05:52:53;0.40;99.90
11140;DHT22;5624;49.388;11.350;2022-12-07T05:55:19;0.30;99.90
11140;DHT22;5624;49.388;11.350;2022-12-07T05:57:44;0.30;99.90
11140;DHT22;5624;49.388;11.350;2022-12-07T06:00:30;0.30;99.90
11140;DHT22;5624;49.388;11.350;2022-12-07T06:02:56;0.30;99.90
11140;DHT22;5624;49.388;11.350;2022-12-07T06:05:21;0.30;99.90
11140;DHT22;5624;49.388;11.350;2022-12-07T06:07:47;0.30;99.90
11140;DHT22;5624;49.388;11.350;2022-12-07T06:10:12;0.30;99.90
11140;DHT22;5624;49.388;11.350;2022-12-07T06:12:38;0.30;99.90
11140;DHT22;5624;49.388;11.350;2022-12-07T06:15:05;0.30;99.90
11140;DHT22;5624;49.388;11.350;2022-12-07T06:17:31;0.30;99.90
11140;DHT22;5624;49.388;11.350;2022-12-07T06:19:57;0.30;99.90
11140;DHT22;5624;49.388;11.350;2022-12-07T06:22:22;0.30;99.90
11140;DHT22;5624;49.388;11.350;2022-12-07T06:24:48;0.30;99.90
11140;DHT22;5624;49.388;11.350;2022-12-07T06:27:13;0.30;99.90
11140;DHT22;5624;49.388;11.350;2022-12-07T06:29:39;0.30;99.90
11140;DHT22;5624;49.388;11.350;2022-12-07T06:32:05;0.30;99.90
11140;DHT22;5624;49.388;11.350;2022-12-07T06:34:31;0.30;99.90
11140;DHT22;5624;49.388;11.350;2022-12-07T06:36:56;0.30;99.90
11140;DHT22;5624;49.388;11.350;2022-12-07T06:39:24;0.30;99.90
11140;DHT22;5624;49.388;11.350;2022-12-07T06:41:50;0.40;99.90
11140;DHT22;5624;49.388;11.350;2022-12-07T06:44:17;0.30;99.90
11140;DHT22;5624;49.388;11.350;2022-12-07T06:46:44;0.40;99.90
11140;DHT22;5624;49.388;11.350;2022-12-07T06:49:10;0.30;99.90
11140;DHT22;5624;49.388;11.350;2022-12-07T06:51:36;0.30;99.90
11140;DHT22;5624;49.388;11.350;2022-12-07T06:54:06;0.30;99.90
11140;DHT22;5624;49.388;11.350;2022-12-07T06:56:32;0.30;99.90
11140;DHT22;5624;49.388;11.350;2022-12-07T06:58:58;0.40;99.90
11140;DHT22;5624;49.388;11.350;2022-12-07T07:01:23;0.30;99.90
11140;DHT22;5624;49.388;11.350;2022-12-07T07:03:49;0.40;99.90
11140;DHT22;5624;49.388;11.350;2022-12-07T07:06:15;0.40;99.90
11140;DHT22;5624;49.388;11.350;2022-12-07T07:08:41;0.40;99.90
11140;DHT22;5624;49.388;11.350;2022-12-07T07:11:07;0.40;99.90
11140;DHT22;5624;49.388;11.350;2022-12-07T07:13:33;0.40;99.90
11140;DHT22;5624;49.388;11.350;2022-12-07T07:15:59;0.40;99.90
11140;DHT22;5624;49.388;11.350;2022-12-07T07:18:25;0.40;99.90
11140;DHT22;5624;49.388;11.350;2022-12-07T07:20:53;0.40;99.90
11140;DHT22;5624;49.388;11.350;2022-12-07T07:23:20;0.50;99.90
11140;DHT22;5624;49.388;11.350;2022-12-07T07:25:46;0.50;99.90
11140;DHT22;5624;49.388;11.350;2022-12-07T07:28:11;0.50;99.90
11140;DHT22;5624;49.388;11.350;2022-12-07T07:30:37;0.50;99.90
11140;DHT22;5624;49.388;11.350;2022-12-07T07:33:03;0.50;99.90
11140;DHT22;5624;49.388;11.350;2022-12-07T07:35:31;0.50;99.90
11140;DHT22;5624;49.388;11.350;2022-12-07T07:37:57;0.50;99.90
11140;DHT22;5624;49.388;11.350;2022-12-07T07:40:23;0.60;99.90
11140;DHT22;5624;49.388;11.350;2022-12-07T07:42:53;0.70;99.90
11140;DHT22;5624;49.388;11.350;2022-12-07T07:45:20;0.60;99.90
11140;DHT22;5624;49.388;11.350;2022-12-07T07:47:45;0.60;99.90
11140;DHT22;5624;49.388;11.350;2022-12-07T07:50:11;0.60;99.90
11140;DHT22;5624;49.388;11.350;2022-12-07T07:52:38;0.60;99.90
11140;DHT22;5624;49.388;11.350;2022-12-07T07:55:05;0.70;99.40
11140;DHT22;5624;49.388;11.350;2022-12-07T07:57:30;0.70;99.90
11140;DHT22;5624;49.388;11.350;2022-12-07T07:59:56;0.70;99.90
11140;DHT22;5624;49.388;11.350;2022-12-07T08:02:22;0.60;99.90
11140;DHT22;5624;49.388;11.350;2022-12-07T08:04:48;0.70;99.90
11140;DHT22;5624;49.388;11.350;2022-12-07T08:07:15;0.70;99.90
11140;DHT22;5624;49.388;11.350;2022-12-07T08:09:41;0.80;99.90
11140;DHT22;5624;49.388;11.350;2022-12-07T08:12:07;0.80;99.70
11140;DHT22;5624;49.388;11.350;2022-12-07T08:14:33;0.90;99.90
11140;DHT22;5624;49.388;11.350;2022-12-07T08:16:59;0.90;99.90
11140;DHT22;5624;49.388;11.350;2022-12-07T08:19:25;0.90;99.90
11140;DHT22;5624;49.388;11.350;2022-12-07T08:21:50;0.90;99.30
11140;DHT22;5624;49.388;11.350;2022-12-07T08:24:16;0.90;99.40
11140;DHT22;5624;49.388;11.350;2022-12-07T08:26:42;0.90;99.30
11140;DHT22;5624;49.388;11.350;2022-12-07T08:29:08;1.00;98.70
11140;DHT22;5624;49.388;11.350;2022-12-07T08:31:34;1.00;98.40
11140;DHT22;5624;49.388;11.350;2022-12-07T08:33:59;1.00;98.70
11140;DHT22;5624;49.388;11.350;2022-12-07T08:36:25;1.00;99.00
11140;DHT22;5624;49.388;11.350;2022-12-07T08:38:50;1.10;98.60
11140;DHT22;5624;49.388;11.350;2022-12-07T08:41:17;1.10;98.40
11140;DHT22;5624;49.388;11.350;2022-12-07T08:43:43;1.10;98.70
11140;DHT22;5624;49.388;11.350;2022-12-07T08:46:34;1.10;99.20
11140;DHT22;5624;49.388;11.350;2022-12-07T08:49:05;1.20;99.40
11140;DHT22;5624;49.388;11.350;2022-12-07T08:51:32;1.30;98.80
11140;DHT22;5624;49.388;11.350;2022-12-07T08:53:59;1.30;98.30
11140;DHT22;5624;49.388;11.350;2022-12-07T08:56:26;1.30;98.50
11140;DHT22;5624;49.388;11.350;2022-12-07T08:58:53;1.30;98.10
11140;DHT22;5624;49.388;11.350;2022-12-07T09:01:19;1.30;98.00
11140;DHT22;5624;49.388;11.350;2022-12-07T09:03:45;1.40;98.20
11140;DHT22;5624;49.388;11.350;2022-12-07T09:06:10;1.50;98.20
11140;DHT22;5624;49.388;11.350;2022-12-07T09:08:40;1.50;97.50
11140;DHT22;5624;49.388;11.350;2022-12-07T09:11:07;1.50;97.60
11140;DHT22;5624;49.388;11.350;2022-12-07T09:13:33;1.50;97.90
11140;DHT22;5624;49.388;11.350;2022-12-07T09:15:59;1.60;97.70
11140;DHT22;5624;49.388;11.350;2022-12-07T09:18:24;1.50;97.40
11140;DHT22;5624;49.388;11.350;2022-12-07T09:20:50;1.60;97.80
11140;DHT22;5624;49.388;11.350;2022-12-07T09:23:16;1.50;97.50
11140;DHT22;5624;49.388;11.350;2022-12-07T09:25:42;1.60;97.40
11140;DHT22;5624;49.388;11.350;2022-12-07T09:28:08;1.50;97.70
11140;DHT22;5624;49.388;11.350;2022-12-07T09:30:34;1.60;97.10
11140;DHT22;5624;49.388;11.350;2022-12-07T09:33:00;1.50;97.50
11140;DHT22;5624;49.388;11.350;2022-12-07T09:35:26;1.60;97.40
11140;DHT22;5624;49.388;11.350;2022-12-07T09:37:52;1.60;97.60
11140;DHT22;5624;49.388;11.350;2022-12-07T09:40:20;1.60;97.10
11140;DHT22;5624;49.388;11.350;2022-12-07T09:42:49;1.60;96.90
11140;DHT22;5624;49.388;11.350;2022-12-07T09:45:24;1.60;96.60
11140;DHT22;5624;49.388;11.350;2022-12-07T09:47:51;1.60;97.00
11140;DHT22;5624;49.388;11.350;2022-12-07T09:50:23;1.50;97.10
11140;DHT22;5624;49.388;11.350;2022-12-07T09:52:49;1.60;97.90
11140;DHT22;5624;49.388;11.350;2022-12-07T09:55:23;1.60;98.00
11140;DHT22;5624;49.388;11.350;2022-12-07T09:57:50;1.50;97.80
11140;DHT22;5624;49.388;11.350;2022-12-07T10:00:20;1.60;97.90
11140;DHT22;5624;49.388;11.350;2022-12-07T10:02:58;1.50;97.70
11140;DHT22;5624;49.388;11.350;2022-12-07T10:05:28;1.60;98.10
11140;DHT22;5624;49.388;11.350;2022-12-07T10:07:55;1.60;97.80
11140;DHT22;5624;49.388;11.350;2022-12-07T10:10:30;1.60;97.70
11140;DHT22;5624;49.388;11.350;2022-12-07T10:13:05;1.70;98.10
11140;DHT22;5624;49.388;11.350;2022-12-07T10:21:03;1.80;97.60
11140;DHT22;5624;49.388;11.350;2022-12-07T10:23:30;1.80;97.40
11140;DHT22;5624;49.388;11.350;2022-12-07T10:25:56;1.80;97.90
11140;DHT22;5624;49.388;11.350;2022-12-07T10:28:21;1.80;97.50
11140;DHT22;5624;49.388;11.350;2022-12-07T10:31:15;1.90;98.00
11140;DHT22;5624;49.388;11.350;2022-12-07T10:39:18;1.90;97.80
11140;DHT22;5624;49.388;11.350;2022-12-07T10:42:00;1.90;97.70
11140;DHT22;5624;49.388;11.350;2022-12-07T10:44:33;1.90;97.80
11140;DHT22;5624;49.388;11.350;2022-12-07T10:53:14;1.90;97.80
11140;DHT22;5624;49.388;11.350;2022-12-07T11:01:50;2.00;98.00
11140;DHT22;5624;49.388;11.350;2022-12-07T11:04:50;2.00;98.20
11140;DHT22;5624;49.388;11.350;2022-12-07T11:20:49;2.10;97.70
11140;DHT22;5624;49.388;11.350;2022-12-07T11:24:00;2.10;97.50
11140;DHT22;5624;49.388;11.350;2022-12-07T11:36:56;2.10;97.90
11140;DHT22;5624;49.388;11.350;2022-12-07T11:41:51;2.20;97.80
11140;DHT22;5624;49.388;11.350;2022-12-07T11:49:40;2.30;98.30
11140;DHT22;5624;49.388;11.350;2022-12-07T11:52:57;2.40;97.80
11140;DHT22;5624;49.388;11.350;2022-12-07T11:55:05;2.40;97.30
11140;DHT22;5624;49.388;11.350;2022-12-07T11:57:43;2.50;96.70
11140;DHT22;5624;49.388;11.350;2022-12-07T12:00:14;2.50;96.80
11140;DHT22;5624;49.388;11.350;2022-12-07T12:03:14;2.50;96.60
11140;DHT22;5624;49.388;11.350;2022-12-07T12:05:39;2.50;96.50
11140;DHT22;5624;49.388;11.350;2022-12-07T12:08:13;2.40;96.50
11140;DHT22;5624;49.388;11.350;2022-12-07T12:10:55;2.40;96.30
11140;DHT22;5624;49.388;11.350;2022-12-07T12:19:03;2.30;96.90
11140;DHT22;5624;49.388;11.350;2022-12-07T12:21:30;2.40;97.10
11140;DHT22;5624;49.388;11.350;2022-12-07T12:24:00;2.40;97.20
11140;DHT22;5624;49.388;11.350;2022-12-07T12:26:31;2.40;97.70
11140;DHT22;5624;49.388;11.350;2022-12-07T12:29:06;2.60;97.80
11140;DHT22;5624;49.388;11.350;2022-12-07T12:31:47;2.50;96.90
11140;DHT22;5624;49.388;11.350;2022-12-07T12:34:40;2.60;96.50
11140;DHT22;5624;49.388;11.350;2022-12-07T12:45:31;2.50;96.20
11140;DHT22;5624;49.388;11.350;2022-12-07T12:48:07;2.40;96.70
11140;DHT22;5624;49.388;11.350;2022-12-07T12:54:04;2.50;96.60
11140;DHT22;5624;49.388;11.350;2022-12-07T12:56:52;2.50;96.00
11140;DHT22;5624;49.388;11.350;2022-12-07T12:59:30;2.50;96.20
11140;DHT22;5624;49.388;11.350;2022-12-07T13:18:36;2.50;96.60
11140;DHT22;5624;49.388;11.350;2022-12-07T13:31:53;2.50;96.30
11140;DHT22;5624;49.388;11.350;2022-12-07T13:37:28;2.50;96.60
11140;DHT22;5624;49.388;11.350;2022-12-07T13:40:01;2.50;97.20
11140;DHT22;5624;49.388;11.350;2022-12-07T13:42:37;2.50;97.30
11140;DHT22;5624;49.388;11.350;2022-12-07T13:45:30;2.50;96.90
11140;DHT22;5624;49.388;11.350;2022-12-07T13:48:36;2.60;96.80
11140;DHT22;5624;49.388;11.350;2022-12-07T13:51:25;2.50;96.70
11140;DHT22;5624;49.388;11.350;2022-12-07T13:53:54;2.50;97.00
11140;DHT22;5624;49.388;11.350;2022-12-07T13:56:22;2.60;97.00
11140;DHT22;5624;49.388;11.350;2022-12-07T13:58:51;2.50;97.00
11140;DHT22;5624;49.388;11.350;2022-12-07T14:01:16;2.50;97.30
11140;DHT22;5624;49.388;11.350;2022-12-07T14:03:43;2.50;97.70
11140;DHT22;5624;49.388;11.350;2022-12-07T14:06:25;2.50;97.30
11140;DHT22;5624;49.388;11.350;2022-12-07T14:11:43;2.50;96.90
11140;DHT22;5624;49.388;11.350;2022-12-07T14:14:18;2.50;97.20
11140;DHT22;5624;49.388;11.350;2022-12-07T14:19:52;2.30;97.60
11140;DHT22;5624;49.388;11.350;2022-12-07T14:22:33;2.20;98.20
11140;DHT22;5624;49.388;11.350;2022-12-07T14:25:20;2.30;98.40
11140;DHT22;5624;49.388;11.350;2022-12-07T14:28:01;2.30;98.60
11140;DHT22;5624;49.388;11.350;2022-12-07T14:30:29;2.20;98.30
11140;DHT22;5624;49.388;11.350;2022-12-07T14:32:59;2.20;98.70
11140;DHT22;5624;49.388;11.350;2022-12-07T14:35:26;2.10;98.90
11140;DHT22;5624;49.388;11.350;2022-12-07T14:37:52;2.10;98.90
11140;DHT22;5624;49.388;11.350;2022-12-07T14:40:21;2.10;99.00
11140;DHT22;5624;49.388;11.350;2022-12-07T14:42:50;2.00;99.10
11140;DHT22;5624;49.388;11.350;2022-12-07T14:45:19;2.00;99.80
11140;DHT22;5624;49.388;11.350;2022-12-07T14:47:45;2.00;99.70
11140;DHT22;5624;49.388;11.350;2022-12-07T14:50:13;2.00;99.70
11140;DHT22;5624;49.388;11.350;2022-12-07T14:52:40;2.00;99.90
11140;DHT22;5624;49.388;11.350;2022-12-07T14:55:14;2.00;99.90
11140;DHT22;5624;49.388;11.350;2022-12-07T14:57:41;2.00;99.70
11140;DHT22;5624;49.388;11.350;2022-12-07T15:00:09;1.90;99.60
11140;DHT22;5624;49.388;11.350;2022-12-07T15:02:38;1.90;99.90
11140;DHT22;5624;49.388;11.350;2022-12-07T15:05:04;2.00;99.80
11140;DHT22;5624;49.388;11.350;2022-12-07T15:07:29;1.90;99.70
11140;DHT22;5624;49.388;11.350;2022-12-07T15:09:55;1.90;99.90
11140;DHT22;5624;49.388;11.350;2022-12-07T15:12:21;1.90;99.90
11140;DHT22;5624;49.388;11.350;2022-12-07T15:14:46;1.90;99.90
11140;DHT22;5624;49.388;11.350;2022-12-07T15:17:12;2.00;99.90
11140;DHT22;5624;49.388;11.350;2022-12-07T15:19:38;2.00;99.90
11140;DHT22;5624;49.388;11.350;2022-12-07T15:22:04;1.90;99.90
11140;DHT22;5624;49.388;11.350;2022-12-07T15:24:30;1.90;99.90
11140;DHT22;5624;49.388;11.350;2022-12-07T15:26:55;1.90;99.90
11140;DHT22;5624;49.388;11.350;2022-12-07T15:29:21;1.90;99.90
11140;DHT22;5624;49.388;11.350;2022-12-07T15:31:49;1.90;99.90
11140;DHT22;5624;49.388;11.350;2022-12-07T15:34:14;2.00;99.90
11140;DHT22;5624;49.388;11.350;2022-12-07T15:36:40;2.00;99.90
11140;DHT22;5624;49.388;11.350;2022-12-07T15:39:05;1.90;99.90
11140;DHT22;5624;49.388;11.350;2022-12-07T15:41:31;1.90;99.90
11140;DHT22;5624;49.388;11.350;2022-12-07T15:43:57;1.90;99.90
11140;DHT22;5624;49.388;11.350;2022-12-07T15:46:41;1.90;99.90
11140;DHT22;5624;49.388;11.350;2022-12-07T15:49:13;1.90;99.90
11140;DHT22;5624;49.388;11.350;2022-12-07T15:51:40;1.90;99.90
11140;DHT22;5624;49.388;11.350;2022-12-07T15:54:05;1.90;99.90
11140;DHT22;5624;49.388;11.350;2022-12-07T15:56:31;1.80;99.90
11140;DHT22;5624;49.388;11.350;2022-12-07T15:58:57;1.80;99.90
11140;DHT22;5624;49.388;11.350;2022-12-07T16:01:22;1.70;99.90
11140;DHT22;5624;49.388;11.350;2022-12-07T16:03:48;1.70;99.90
11140;DHT22;5624;49.388;11.350;2022-12-07T16:06:17;1.70;99.90
11140;DHT22;5624;49.388;11.350;2022-12-07T16:08:47;1.70;99.90
11140;DHT22;5624;49.388;11.350;2022-12-07T16:11:12;1.70;99.90
11140;DHT22;5624;49.388;11.350;2022-12-07T16:13:38;1.70;99.90
11140;DHT22;5624;49.388;11.350;2022-12-07T16:16:07;1.80;99.90
11140;DHT22;5624;49.388;11.350;2022-12-07T16:18:33;1.70;99.90
11140;DHT22;5624;49.388;11.350;2022-12-07T16:20:59;1.70;99.90
11140;DHT22;5624;49.388;11.350;2022-12-07T16:23:25;1.70;99.90
11140;DHT22;5624;49.388;11.350;2022-12-07T16:25:50;1.70;99.90
11140;DHT22;5624;49.388;11.350;2022-12-07T16:28:16;1.80;99.90
11140;DHT22;5624;49.388;11.350;2022-12-07T16:30:42;1.70;99.90
11140;DHT22;5624;49.388;11.350;2022-12-07T16:33:07;1.70;99.90
11140;DHT22;5624;49.388;11.350;2022-12-07T16:35:33;1.70;99.90
11140;DHT22;5624;49.388;11.350;2022-12-07T16:37:58;1.80;99.90
11140;DHT22;5624;49.388;11.350;2022-12-07T16:40:24;1.70;99.90
11140;DHT22;5624;49.388;11.350;2022-12-07T16:42:49;1.70;99.90
11140;DHT22;5624;49.388;11.350;2022-12-07T16:45:15;1.80;99.90
11140;DHT22;5624;49.388;11.350;2022-12-07T16:47:41;1.80;99.90
11140;DHT22;5624;49.388;11.350;2022-12-07T16:50:07;1.80;99.90
11140;DHT22;5624;49.388;11.350;2022-12-07T16:52:33;1.80;99.90
11140;DHT22;5624;49.388;11.350;2022-12-07T16:54:59;1.90;99.90
11140;DHT22;5624;49.388;11.350;2022-12-07T16:57:25;1.80;99.90
11140;DHT22;5624;49.388;11.350;2022-12-07T16:59:51;1.80;99.90
11140;DHT22;5624;49.388;11.350;2022-12-07T17:02:17;1.80;99.90
11140;DHT22;5624;49.388;11.350;2022-12-07T17:04:43;1.80;99.90
11140;DHT22;5624;49.388;11.350;2022-12-07T17:07:09;1.80;99.90
11140;DHT22;5624;49.388;11.350;2022-12-07T17:09:35;1.80;99.90
11140;DHT22;5624;49.388;11.350;2022-12-07T17:12:01;1.80;99.90
11140;DHT22;5624;49.388;11.350;2022-12-07T17:14:27;1.80;99.90
11140;DHT22;5624;49.388;11.350;2022-12-07T17:17:11;1.80;99.90
11140;DHT22;5624;49.388;11.350;2022-12-07T17:19:36;1.70;99.90
11140;DHT22;5624;49.388;11.350;2022-12-07T17:22:02;1.70;99.90
11140;DHT22;5624;49.388;11.350;2022-12-07T17:24:28;1.70;99.90
11140;DHT22;5624;49.388;11.350;2022-12-07T17:26:54;1.70;99.90
11140;DHT22;5624;49.388;11.350;2022-12-07T17:29:20;1.70;99.90
11140;DHT22;5624;49.388;11.350;2022-12-07T17:31:47;1.60;99.90
11140;DHT22;5624;49.388;11.350;2022-12-07T17:34:15;1.70;99.90
11140;DHT22;5624;49.388;11.350;2022-12-07T17:36:41;1.70;99.90
11140;DHT22;5624;49.388;11.350;2022-12-07T17:39:11;1.60;99.90
11140;DHT22;5624;49.388;11.350;2022-12-07T17:41:38;1.60;99.90
11140;DHT22;5624;49.388;11.350;2022-12-07T17:44:23;1.60;99.90
11140;DHT22;5624;49.388;11.350;2022-12-07T17:46:52;1.60;99.90
11140;DHT22;5624;49.388;11.350;2022-12-07T17:49:22;1.60;99.90
11140;DHT22;5624;49.388;11.350;2022-12-07T17:51:48;1.50;99.90
11140;DHT22;5624;49.388;11.350;2022-12-07T17:54:32;1.60;99.90
11140;DHT22;5624;49.388;11.350;2022-12-07T17:56:58;1.60;99.90
11140;DHT22;5624;49.388;11.350;2022-12-07T17:59:24;1.60;99.90
11140;DHT22;5624;49.388;11.350;2022-12-07T18:01:50;1.50;99.90
11140;DHT22;5624;49.388;11.350;2022-12-07T18:04:16;1.60;99.90
11140;DHT22;5624;49.388;11.350;2022-12-07T18:06:42;1.60;99.90
11140;DHT22;5624;49.388;11.350;2022-12-07T18:09:08;1.60;99.90
11140;DHT22;5624;49.388;11.350;2022-12-07T18:11:34;1.60;99.90
11140;DHT22;5624;49.388;11.350;2022-12-07T18:14:01;1.70;99.90
11140;DHT22;5624;49.388;11.350;2022-12-07T18:16:28;1.60;99.90
11140;DHT22;5624;49.388;11.350;2022-12-07T18:18:57;1.70;99.90